createdAt,value
2022-08-24T00:00:43.666Z,96559.81
2022-08-24T00:03:13.222Z,96557.94
2022-08-24T00:05:41.110Z,96554.19
2022-08-24T00:08:08.832Z,96558.50
2022-08-24T00:10:36.692Z,96556.34
2022-08-24T00:13:04.703Z,96556.34
2022-08-24T00:15:32.677Z,96558.22
2022-08-24T00:18:00.544Z,96559.56
2022-08-24T00:20:29.752Z,96562.00
2022-08-24T00:22:57.508Z,96564.19
2022-08-24T00:25:25.603Z,96559.84
2022-08-24T00:27:53.731Z,96550.66
2022-08-24T00:30:23.302Z,96551.75
2022-08-24T00:32:51.501Z,96554.63
2022-08-24T00:35:19.939Z,96555.50
2022-08-24T00:37:50.403Z,96552.25
2022-08-24T00:40:22.982Z,96555.50
2022-08-24T00:42:51.297Z,96548.75
2022-08-24T00:45:20.678Z,96533.09
2022-08-24T00:47:52.932Z,96554.44
2022-08-24T00:50:23.090Z,96559.22
2022-08-24T00:52:57.949Z,96557.56
2022-08-24T00:55:30.422Z,96552.72
2022-08-24T00:58:01.534Z,96556.53
2022-08-24T01:00:34.448Z,96553.59
2022-08-24T01:03:06.893Z,96552.97
2022-08-24T01:05:36.634Z,96547.28
2022-08-24T01:08:08.912Z,96542.72
2022-08-24T01:10:40.618Z,96547.03
2022-08-24T01:13:11.599Z,96547.31
2022-08-24T01:15:43.699Z,96551.84
2022-08-24T01:18:34.947Z,96538.88
2022-08-24T01:21:08.746Z,96539.84
2022-08-24T01:23:41.337Z,96545.59
2022-08-24T01:26:12.245Z,96539.34
2022-08-24T01:28:45.221Z,96543.25
2022-08-24T01:31:13.617Z,96530.81
2022-08-24T01:33:41.817Z,96539.56
2022-08-24T01:36:21.121Z,96536.22
2022-08-24T01:39:14.748Z,96531.31
2022-08-24T01:41:42.581Z,96541.75
2022-08-24T01:44:10.994Z,96542.00
2022-08-24T01:46:38.784Z,96532.75
2022-08-24T01:49:06.553Z,96545.28
2022-08-24T01:51:35.017Z,96539.69
2022-08-24T01:54:04.826Z,96536.50
2022-08-24T01:56:33.748Z,96536.31
2022-08-24T01:59:02.507Z,96540.47
2022-08-24T02:01:32.180Z,96542.19
2022-08-24T02:04:03.766Z,96543.34
2022-08-24T02:06:32.952Z,96541.53
2022-08-24T02:09:01.028Z,96539.78
2022-08-24T02:11:30.167Z,96542.94
2022-08-24T02:13:58.484Z,96549.50
2022-08-24T02:16:28.496Z,96545.09
2022-08-24T02:18:56.396Z,96547.00
2022-08-24T02:21:24.253Z,96546.91
2022-08-24T02:23:52.829Z,96547.34
2022-08-24T02:26:20.531Z,96553.41
2022-08-24T02:28:49.666Z,96552.88
2022-08-24T02:31:17.438Z,96553.13
2022-08-24T02:33:45.221Z,96553.28
2022-08-24T02:36:25.431Z,96549.38
2022-08-24T02:38:54.870Z,96548.84
2022-08-24T02:41:24.692Z,96556.34
2022-08-24T02:43:54.366Z,96554.53
2022-08-24T02:46:27.182Z,96550.78
2022-08-24T02:48:58.089Z,96548.34
2022-08-24T02:51:44.020Z,96553.78
2022-08-24T02:54:17.300Z,96555.44
2022-08-24T02:56:44.954Z,96554.34
2022-08-24T02:59:14.074Z,96552.69
2022-08-24T03:01:41.905Z,96551.00
2022-08-24T03:04:10.995Z,96520.16
2022-08-24T03:06:38.773Z,96550.81
2022-08-24T03:09:06.465Z,96555.03
2022-08-24T03:11:34.287Z,96551.41
2022-08-24T03:14:02.031Z,96544.97
2022-08-24T03:16:32.283Z,96551.50
2022-08-24T03:19:00.199Z,96547.03
2022-08-24T03:21:28.313Z,96546.78
2022-08-24T03:23:56.056Z,96543.13
2022-08-24T03:26:24.047Z,96555.06
2022-08-24T03:28:52.901Z,96547.38
2022-08-24T03:31:20.770Z,96543.59
2022-08-24T03:33:49.898Z,96548.41
2022-08-24T03:36:17.763Z,96537.69
2022-08-24T03:38:45.557Z,96550.41
2022-08-24T03:41:13.472Z,96537.44
2022-08-24T03:43:48.673Z,96555.41
2022-08-24T03:46:19.175Z,96555.34
2022-08-24T03:48:49.070Z,96538.13
2022-08-24T03:51:19.998Z,96532.06
2022-08-24T03:53:48.025Z,96552.84
2022-08-24T03:56:17.413Z,96557.94
2022-08-24T03:58:45.920Z,96541.94
2022-08-24T04:01:14.954Z,96556.94
2022-08-24T04:03:44.584Z,96548.84
2022-08-24T04:06:15.941Z,96552.41
2022-08-24T04:08:43.923Z,96548.13
2022-08-24T04:11:12.986Z,96552.59
2022-08-24T04:13:40.936Z,96548.22
2022-08-24T04:16:10.469Z,96555.19
2022-08-24T04:18:38.351Z,96546.31
2022-08-24T04:21:06.450Z,96557.75
2022-08-24T04:23:46.994Z,96555.56
2022-08-24T04:26:16.638Z,96550.84
2022-08-24T04:29:03.097Z,96558.72
2022-08-24T04:31:36.742Z,96555.44
2022-08-24T04:34:05.268Z,96560.75
2022-08-24T04:36:34.215Z,96553.91
2022-08-24T04:39:04.455Z,96562.72
2022-08-24T04:41:32.205Z,96562.75
2022-08-24T04:44:02.787Z,96559.06
2022-08-24T04:46:30.972Z,96568.59
2022-08-24T04:48:58.738Z,96565.56
2022-08-24T04:51:26.745Z,96565.19
2022-08-24T04:53:57.052Z,96567.34
2022-08-24T04:56:26.872Z,96572.72
2022-08-24T04:58:56.325Z,96573.66
2022-08-24T05:01:26.847Z,96575.63
2022-08-24T05:03:55.826Z,96581.56
2022-08-24T05:06:27.012Z,96579.06
2022-08-24T05:08:55.111Z,96577.84
2022-08-24T05:11:23.648Z,96577.84
2022-08-24T05:13:54.675Z,96579.81
2022-08-24T05:16:23.263Z,96586.88
2022-08-24T05:18:51.640Z,96581.91
2022-08-24T05:21:22.371Z,96582.38
2022-08-24T05:23:50.704Z,96581.94
2022-08-24T05:26:21.054Z,96586.88
2022-08-24T05:28:49.199Z,96586.88
2022-08-24T05:31:21.952Z,96582.19
2022-08-24T05:33:50.679Z,96578.78
2022-08-24T05:36:20.886Z,96583.63
2022-08-24T05:38:49.200Z,96586.53
2022-08-24T05:41:17.711Z,96589.28
2022-08-24T05:43:45.718Z,96590.94
2022-08-24T05:46:14.314Z,96598.28
2022-08-24T05:48:43.480Z,96595.84
2022-08-24T05:51:20.925Z,96594.56
2022-08-24T05:53:49.193Z,96581.59
2022-08-24T05:56:18.913Z,96598.72
2022-08-24T05:58:47.276Z,96605.22
2022-08-24T06:01:17.607Z,96598.78
2022-08-24T06:03:47.349Z,96600.13
2022-08-24T06:06:16.319Z,96596.63
2022-08-24T06:08:46.518Z,96596.88
2022-08-24T06:11:24.790Z,96593.94
2022-08-24T06:14:01.205Z,96600.69
2022-08-24T06:16:29.292Z,96597.13
2022-08-24T06:18:58.451Z,96605.19
2022-08-24T06:21:28.696Z,96596.69
2022-08-24T06:23:57.598Z,96605.59
2022-08-24T06:26:43.525Z,96604.78
2022-08-24T06:29:16.787Z,96590.59
2022-08-24T06:31:46.979Z,96600.09
2022-08-24T06:34:17.763Z,96608.00
2022-08-24T06:36:45.953Z,96610.63
2022-08-24T06:39:14.189Z,96616.06
2022-08-24T06:41:42.945Z,96621.50
2022-08-24T06:44:12.365Z,96609.16
2022-08-24T06:46:40.547Z,96611.72
2022-08-24T06:49:08.333Z,96612.06
2022-08-24T06:51:37.446Z,96604.06
2022-08-24T06:54:05.518Z,96605.34
2022-08-24T06:56:33.290Z,96605.44
2022-08-24T06:59:03.256Z,96609.63
2022-08-24T07:01:31.675Z,96609.81
2022-08-24T07:03:59.708Z,96603.91
2022-08-24T07:06:28.034Z,96599.66
2022-08-24T07:08:57.162Z,96608.56
2022-08-24T07:11:25.478Z,96611.09
2022-08-24T07:13:53.251Z,96611.81
2022-08-24T07:16:23.314Z,96607.50
2022-08-24T07:18:51.366Z,96613.78
2022-08-24T07:21:19.869Z,96610.94
2022-08-24T07:23:48.535Z,96613.97
2022-08-24T07:26:21.439Z,96612.56
2022-08-24T07:28:50.658Z,96612.47
2022-08-24T07:31:18.698Z,96616.28
2022-08-24T07:33:46.464Z,96616.94
2022-08-24T07:36:21.873Z,96618.88
2022-08-24T07:38:52.162Z,96617.91
2022-08-24T07:41:46.873Z,96615.66
2022-08-24T07:44:10.019Z,96621.56
2022-08-24T07:46:38.964Z,96611.91
2022-08-24T07:49:12.572Z,96618.03
2022-08-24T07:51:48.768Z,96618.81
2022-08-24T07:54:16.711Z,96614.56
2022-08-24T07:56:45.802Z,96618.78
2022-08-24T07:59:13.748Z,96619.28
2022-08-24T08:01:42.256Z,96619.72
2022-08-24T08:04:10.811Z,96618.88
2022-08-24T08:06:38.744Z,96612.00
2022-08-24T08:09:06.903Z,96621.69
2022-08-24T08:11:35.139Z,96618.16
2022-08-24T08:14:04.287Z,96613.25
2022-08-24T08:16:32.213Z,96614.19
2022-08-24T08:19:09.921Z,96616.91
2022-08-24T08:22:00.837Z,96608.69
2022-08-24T08:24:28.807Z,96622.72
2022-08-24T08:26:57.632Z,96631.13
2022-08-24T08:29:27.746Z,96622.72
2022-08-24T08:31:55.938Z,96623.22
2022-08-24T08:34:23.810Z,96626.63
2022-08-24T08:36:52.205Z,96632.22
2022-08-24T08:39:23.425Z,96623.38
2022-08-24T08:42:19.560Z,96627.03
2022-08-24T08:45:04.172Z,96627.75
2022-08-24T08:50:47.613Z,96623.63
2022-08-24T08:53:41.570Z,96626.66
2022-08-24T08:56:21.661Z,96621.56
2022-08-24T08:59:04.254Z,96618.63
2022-08-24T09:01:44.249Z,96618.22
2022-08-24T09:04:39.765Z,96621.41
2022-08-24T09:07:25.618Z,96616.81
2022-08-24T09:10:23.588Z,96614.38
2022-08-24T09:13:15.065Z,96613.38
2022-08-24T09:15:58.006Z,96604.75
2022-08-24T09:18:42.411Z,96606.19
2022-08-24T09:21:29.425Z,96605.84
2022-08-24T09:24:09.893Z,96603.28
2022-08-24T09:26:48.391Z,96609.81
2022-08-24T09:29:18.868Z,96602.81
2022-08-24T09:32:00.272Z,96600.13
2022-08-24T09:34:36.936Z,96611.91
2022-08-24T09:37:43.706Z,96609.31
2022-08-24T09:40:29.513Z,96610.97
2022-08-24T09:43:39.903Z,96601.97
2022-08-24T09:46:29.576Z,96604.97
2022-08-24T09:49:28.367Z,96606.16
2022-08-24T09:52:31.647Z,96608.22
2022-08-24T09:55:23.795Z,96606.81
2022-08-24T09:58:09.074Z,96601.53
2022-08-24T10:00:45.080Z,96605.06
2022-08-24T10:03:34.964Z,96600.94
2022-08-24T10:06:18.926Z,96591.56
2022-08-24T10:09:13.064Z,96583.09
2022-08-24T10:11:53.367Z,96584.09
2022-08-24T10:14:37.826Z,96587.78
2022-08-24T10:17:14.845Z,96579.16
2022-08-24T10:19:58.966Z,96584.91
2022-08-24T10:22:56.004Z,96582.19
2022-08-24T10:25:38.748Z,96566.34
2022-08-24T10:28:35.163Z,96571.69
2022-08-24T10:31:08.722Z,96566.75
2022-08-24T10:33:49.702Z,96575.63
2022-08-24T10:36:42.352Z,96569.97
2022-08-24T10:39:41.441Z,96566.06
2022-08-24T10:43:01.279Z,96573.00
2022-08-24T10:45:50.995Z,96566.91
2022-08-24T10:48:38.012Z,96566.66
2022-08-24T10:51:23.822Z,96575.34
2022-08-24T10:53:53.585Z,96570.59
2022-08-24T10:56:28.627Z,96556.81
2022-08-24T10:59:04.820Z,96570.66
2022-08-24T11:01:37.211Z,96569.47
2022-08-24T11:04:08.705Z,96562.69
2022-08-24T11:06:39.095Z,96557.78
2022-08-24T11:09:10.639Z,96568.78
2022-08-24T11:11:40.889Z,96560.75
2022-08-24T11:14:11.226Z,96565.25
2022-08-24T11:16:42.795Z,96562.91
2022-08-24T11:19:13.240Z,96558.19
2022-08-24T11:21:49.029Z,96539.56
2022-08-24T11:24:30.630Z,96561.38
2022-08-24T11:27:02.409Z,96558.44
2022-08-24T11:30:03.259Z,96551.88
2022-08-24T11:32:39.410Z,96549.69
2022-08-24T11:35:15.796Z,96549.47
2022-08-24T11:37:43.921Z,96547.66
2022-08-24T11:40:12.961Z,96560.56
2022-08-24T11:42:55.250Z,96556.00
2022-08-24T11:45:32.353Z,96541.88
2022-08-24T11:48:12.347Z,96552.97
2022-08-24T11:50:43.941Z,96548.13
2022-08-24T11:53:22.452Z,96546.50
2022-08-24T11:56:02.087Z,96546.25
2022-08-24T11:58:54.550Z,96553.47
2022-08-24T12:01:29.197Z,96542.81
2022-08-24T12:04:13.515Z,96536.69
2022-08-24T12:06:55.566Z,96539.31
2022-08-24T12:09:41.285Z,96537.28
2022-08-24T12:12:19.328Z,96550.91
2022-08-24T12:15:00.160Z,96545.03
2022-08-24T12:17:38.384Z,96546.03
2022-08-24T12:20:15.982Z,96542.47
2022-08-24T12:22:44.498Z,96533.22
2022-08-24T12:25:28.068Z,96539.13
2022-08-24T12:27:58.461Z,96537.84
2022-08-24T12:30:27.887Z,96527.53
2022-08-24T12:33:00.412Z,96528.50
2022-08-24T12:35:33.431Z,96527.34
2022-08-24T12:38:08.123Z,96534.94
2022-08-24T12:40:41.630Z,96520.59
2022-08-24T12:43:14.435Z,96515.03
2022-08-24T12:45:42.398Z,96515.31
2022-08-24T12:48:17.863Z,96504.59
2022-08-24T12:51:03.175Z,96516.88
2022-08-24T12:54:01.611Z,96515.41
2022-08-24T12:57:02.578Z,96504.56
2022-08-24T12:59:34.258Z,96503.88
2022-08-24T13:02:05.255Z,96512.47
2022-08-24T13:04:40.745Z,96506.66
2022-08-24T13:07:14.931Z,96508.66
2022-08-24T13:09:45.896Z,96501.41
2022-08-24T13:12:51.853Z,96497.50
2022-08-24T13:15:49.089Z,96501.31
2022-08-24T13:18:50.565Z,96501.47
2022-08-24T13:21:41.699Z,96501.06
2022-08-24T13:24:50.206Z,96496.03
2022-08-24T13:27:52.202Z,96498.88
2022-08-24T13:30:28.726Z,96493.91
2022-08-24T13:33:10.543Z,96492.78
2022-08-24T13:36:05.086Z,96495.06
2022-08-24T13:39:12.000Z,96487.16
2022-08-24T13:41:55.141Z,96487.84
2022-08-24T13:44:51.698Z,96489.53
2022-08-24T13:47:26.165Z,96477.16
2022-08-24T13:50:09.278Z,96493.53
2022-08-24T13:52:49.274Z,96485.13
2022-08-24T13:55:32.607Z,96473.28
2022-08-24T13:58:22.380Z,96489.22
2022-08-24T14:01:01.592Z,96489.91
2022-08-24T14:04:03.516Z,96487.75
2022-08-24T14:06:41.509Z,96493.53
2022-08-24T14:09:28.433Z,96490.75
2022-08-24T14:12:16.641Z,96491.91
2022-08-24T14:14:56.625Z,96485.28
2022-08-24T14:17:58.135Z,96486.94
2022-08-24T14:20:51.441Z,96493.47
2022-08-24T14:23:28.967Z,96494.53
2022-08-24T14:26:30.021Z,96484.38
2022-08-24T14:29:27.526Z,96483.16
2022-08-24T14:32:34.841Z,96486.31
2022-08-24T14:35:36.410Z,96478.69
2022-08-24T14:38:23.559Z,96479.50
2022-08-24T14:41:07.622Z,96480.63
2022-08-24T14:43:59.149Z,96488.03
2022-08-24T14:46:35.850Z,96476.19
2022-08-24T14:49:16.332Z,96473.25
2022-08-24T14:52:11.039Z,96460.34
2022-08-24T14:54:52.113Z,96468.38
2022-08-24T14:57:37.815Z,96472.19
2022-08-24T15:00:13.619Z,96467.19
2022-08-24T15:03:13.336Z,96469.50
2022-08-24T15:05:58.932Z,96471.16
2022-08-24T15:08:42.734Z,96463.16
2022-08-24T15:11:13.185Z,96459.84
2022-08-24T15:13:48.337Z,96469.31
2022-08-24T15:16:21.220Z,96460.47
2022-08-24T15:18:58.584Z,96465.13
2022-08-24T15:21:40.941Z,96462.56
2022-08-24T15:24:21.685Z,96462.78
2022-08-24T15:26:58.631Z,96457.75
2022-08-24T15:29:30.339Z,96461.78
2022-08-24T15:32:04.771Z,96458.91
2022-08-24T15:34:53.274Z,96467.31
2022-08-24T15:37:34.201Z,96454.09
2022-08-24T15:40:03.297Z,96448.16
2022-08-24T15:42:33.775Z,96447.31
2022-08-24T15:45:03.717Z,96449.78
2022-08-24T15:47:34.171Z,96445.59
2022-08-24T15:50:07.348Z,96439.84
2022-08-24T15:52:57.763Z,96440.09
2022-08-24T15:55:36.887Z,96437.19
2022-08-24T15:58:22.599Z,96441.16
2022-08-24T16:01:08.282Z,96452.63
2022-08-24T16:03:49.079Z,96436.66
2022-08-24T16:06:26.706Z,96449.72
2022-08-24T16:08:59.646Z,96444.16
2022-08-24T16:11:32.685Z,96448.47
2022-08-24T16:14:01.358Z,96455.38
2022-08-24T16:16:35.689Z,96452.16
2022-08-24T16:19:08.677Z,96452.03
2022-08-24T16:21:40.713Z,96465.94
2022-08-24T16:24:13.115Z,96457.22
2022-08-24T16:27:04.239Z,96459.28
2022-08-24T16:29:54.501Z,96460.31
2022-08-24T16:32:30.173Z,96459.25
2022-08-24T16:35:19.196Z,96453.25
2022-08-24T16:37:48.576Z,96462.41
2022-08-24T16:40:17.276Z,96457.78
2022-08-24T16:42:45.058Z,96459.53
2022-08-24T16:45:17.339Z,96462.75
2022-08-24T16:47:46.796Z,96458.34
2022-08-24T16:50:15.339Z,96467.88
2022-08-24T16:52:43.188Z,96462.19
2022-08-24T16:55:14.684Z,96460.56
2022-08-24T16:57:43.851Z,96464.19
2022-08-24T17:00:16.009Z,96463.19
2022-08-24T17:02:44.269Z,96468.22
2022-08-24T17:05:12.350Z,96471.91
2022-08-24T17:07:40.153Z,96476.84
2022-08-24T17:10:10.899Z,96474.63
2022-08-24T17:12:40.031Z,96479.56
2022-08-24T17:15:09.637Z,96476.22
2022-08-24T17:17:37.720Z,96476.44
2022-08-24T17:20:09.519Z,96477.50
2022-08-24T17:22:37.704Z,96481.91
2022-08-24T17:25:06.164Z,96486.13
2022-08-24T17:27:35.274Z,96484.91
2022-08-24T17:30:06.620Z,96478.75
2022-08-24T17:32:34.626Z,96486.22
2022-08-24T17:35:03.404Z,96487.81
2022-08-24T17:37:31.670Z,96489.19
2022-08-24T17:40:01.045Z,96488.50
2022-08-24T17:42:49.735Z,96490.75
2022-08-24T17:45:18.235Z,96492.59
2022-08-24T17:47:46.298Z,96492.81
2022-08-24T17:50:16.369Z,96502.44
2022-08-24T17:52:44.809Z,96495.41
2022-08-24T17:55:15.405Z,96510.19
2022-08-24T17:57:48.320Z,96499.41
2022-08-24T18:00:18.406Z,96500.47
2022-08-24T18:02:46.324Z,96501.09
2022-08-24T18:05:15.147Z,96502.88
2022-08-24T18:07:55.392Z,96500.41
2022-08-24T18:10:26.058Z,96501.88
2022-08-24T18:12:54.201Z,96509.69
2022-08-24T18:15:34.781Z,96512.84
2022-08-24T18:18:08.391Z,96507.63
2022-08-24T18:20:39.006Z,96498.97
2022-08-24T18:23:11.396Z,96502.69
2022-08-24T18:25:48.469Z,96507.03
2022-08-24T18:28:17.901Z,96506.44
2022-08-24T18:30:47.387Z,96503.34
2022-08-24T18:33:15.425Z,96510.31
2022-08-24T18:35:43.187Z,96509.94
2022-08-24T18:38:10.972Z,96515.41
2022-08-24T18:40:40.550Z,96512.56
2022-08-24T18:43:22.090Z,96513.16
2022-08-24T18:45:51.413Z,96523.19
2022-08-24T18:48:19.229Z,96516.00
2022-08-24T18:50:48.040Z,96512.78
2022-08-24T18:53:16.998Z,96514.28
2022-08-24T18:55:47.154Z,96521.97
2022-08-24T18:58:14.997Z,96524.28
2022-08-24T19:00:43.396Z,96529.31
2022-08-24T19:03:16.235Z,96526.91
2022-08-24T19:05:45.385Z,96531.66
2022-08-24T19:08:13.390Z,96529.31
2022-08-24T19:10:41.705Z,96535.97
2022-08-24T19:13:15.130Z,96531.75
2022-08-24T19:15:46.617Z,96540.84
2022-08-24T19:18:18.011Z,96543.34
2022-08-24T19:20:49.080Z,96539.84
2022-08-24T19:23:21.158Z,96541.06
2022-08-24T19:25:49.333Z,96535.34
2022-08-24T19:28:17.283Z,96531.50
2022-08-24T19:30:46.731Z,96510.63
2022-08-24T19:33:20.487Z,96525.81
2022-08-24T19:35:48.227Z,96524.41
2022-08-24T19:38:16.626Z,96529.22
2022-08-24T19:40:47.674Z,96523.38
2022-08-24T19:43:16.383Z,96524.47
2022-08-24T19:46:05.306Z,96521.44
2022-08-24T19:48:37.051Z,96522.34
2022-08-24T19:51:06.855Z,96519.03
2022-08-24T19:53:36.979Z,96519.88
2022-08-24T19:56:05.441Z,96506.22
2022-08-24T19:58:40.232Z,96524.22
2022-08-24T20:01:12.681Z,96516.94
2022-08-24T20:03:41.911Z,96522.28
2022-08-24T20:06:09.977Z,96527.00
2022-08-24T20:08:37.879Z,96530.44
2022-08-24T20:11:06.272Z,96523.25
2022-08-24T20:13:34.226Z,96514.28
2022-08-24T20:16:02.563Z,96512.09
2022-08-24T20:18:32.851Z,96515.38
2022-08-24T20:21:02.852Z,96513.84
2022-08-24T20:23:31.393Z,96520.31
2022-08-24T20:26:01.976Z,96520.81
2022-08-24T20:28:38.184Z,96516.97
2022-08-24T20:31:06.623Z,96525.13
2022-08-24T20:33:34.433Z,96523.44
2022-08-24T20:36:04.017Z,96518.31
2022-08-24T20:38:32.252Z,96522.13
2022-08-24T20:41:00.496Z,96516.88
2022-08-24T20:43:28.442Z,96517.72
2022-08-24T20:45:56.802Z,96517.91
2022-08-24T20:48:28.260Z,96510.03
2022-08-24T20:50:56.467Z,96510.97
2022-08-24T20:53:26.644Z,96509.44
2022-08-24T20:55:57.372Z,96509.44
2022-08-24T20:58:25.119Z,96503.50
2022-08-24T21:00:52.937Z,96509.81
2022-08-24T21:03:21.438Z,96510.47
2022-08-24T21:05:52.249Z,96504.88
2022-08-24T21:08:20.499Z,96499.09
2022-08-24T21:10:49.693Z,96510.78
2022-08-24T21:13:17.532Z,96513.81
2022-08-24T21:15:45.615Z,96495.97
2022-08-24T21:18:13.712Z,96510.88
2022-08-24T21:20:59.860Z,96512.06
2022-08-24T21:23:30.515Z,96507.91
2022-08-24T21:26:00.181Z,96509.59
2022-08-24T21:28:28.073Z,96512.22
2022-08-24T21:30:55.926Z,96501.75
2022-08-24T21:33:41.030Z,96510.97
2022-08-24T21:36:09.632Z,96503.63
2022-08-24T21:38:37.357Z,96517.09
2022-08-24T21:41:08.381Z,96514.56
2022-08-24T21:43:36.097Z,96512.41
2022-08-24T21:46:03.856Z,96515.63
2022-08-24T21:48:31.629Z,96509.00
2022-08-24T21:50:59.384Z,96507.06
2022-08-24T21:53:28.652Z,96517.91
2022-08-24T21:55:57.087Z,96506.97
2022-08-24T21:58:26.186Z,96511.91
2022-08-24T22:00:54.014Z,96516.66
2022-08-24T22:03:32.678Z,96517.47
2022-08-24T22:06:08.586Z,96529.34
2022-08-24T22:08:36.857Z,96514.25
2022-08-24T22:11:05.116Z,96515.28
2022-08-24T22:13:34.501Z,96502.53
2022-08-24T22:16:03.037Z,96502.47
2022-08-24T22:18:31.158Z,96514.69
2022-08-24T22:20:59.280Z,96505.75
2022-08-24T22:23:27.260Z,96507.53
2022-08-24T22:25:55.634Z,96506.59
2022-08-24T22:28:24.244Z,96511.88
2022-08-24T22:30:53.379Z,96500.88
2022-08-24T22:33:21.149Z,96500.53
2022-08-24T22:35:50.299Z,96500.38
2022-08-24T22:38:18.390Z,96487.78
2022-08-24T22:40:46.200Z,96495.44
2022-08-24T22:43:14.118Z,96482.25
2022-08-24T22:45:41.807Z,96492.19
2022-08-24T22:48:10.868Z,96493.75
2022-08-24T22:50:38.670Z,96493.72
2022-08-24T22:53:06.649Z,96499.06
2022-08-24T22:55:34.565Z,96493.97
2022-08-24T22:58:02.242Z,96497.59
2022-08-24T23:00:29.980Z,96493.56
2022-08-24T23:02:57.730Z,96489.06
2022-08-24T23:05:27.087Z,96495.81
2022-08-24T23:07:54.874Z,96491.47
2022-08-24T23:10:22.581Z,96485.78
2022-08-24T23:12:50.301Z,96484.66
2022-08-24T23:15:18.380Z,96488.50
2022-08-24T23:17:46.186Z,96486.72
2022-08-24T23:20:13.358Z,96478.25
2022-08-24T23:22:43.416Z,96484.31
2022-08-24T23:25:13.888Z,96484.13
2022-08-24T23:27:44.499Z,96480.28
2022-08-24T23:30:15.727Z,96476.50
2022-08-24T23:32:43.799Z,96476.75
2022-08-24T23:35:11.673Z,96475.16
2022-08-24T23:37:39.580Z,96474.88
2022-08-24T23:40:09.981Z,96479.81
2022-08-24T23:42:37.812Z,96472.16
2022-08-24T23:45:07.779Z,96474.09
2022-08-24T23:47:39.742Z,96466.06
2022-08-24T23:50:11.283Z,96462.47
2022-08-24T23:52:40.212Z,96450.56
2022-08-24T23:55:20.889Z,96462.69
2022-08-24T23:57:49.546Z,96455.69
